Time;durP1;ratioP1;P1;durP2;ratioP2;P2;SDS_P1;SDS_P2;PMS_P1;PMS_P2;Temp;Humidity;BMP_temperature;BMP_pressure;BME280_temperature;BME280_humidity;BME280_pressure;Samples;Min_cycle;Max_cycle;Signal;HPM_P1;HPM_P2
2020/12/16 00:01:07;;;;;;;19.70;9.80;;;7.70;88.60;;;;;;5052543;28;20036;-46
2020/12/16 00:03:33;;;;;;;19.05;9.75;;;7.70;88.60;;;;;;5052076;28;20041;-44
2020/12/16 00:06:00;;;;;;;20.42;9.85;;;7.60;89.00;;;;;;5048802;28;20049;-45
2020/12/16 00:08:25;;;;;;;21.50;9.55;;;7.60;89.10;;;;;;5050808;28;20055;-47
2020/12/16 00:10:51;;;;;;;22.13;10.27;;;7.50;89.20;;;;;;5050910;28;20025;-46
2020/12/16 00:13:17;;;;;;;20.70;10.15;;;7.50;89.40;;;;;;5052328;28;20037;-46
2020/12/16 00:15:44;;;;;;;20.42;10.30;;;7.60;89.40;;;;;;5038888;28;20473;-44
2020/12/16 00:18:11;;;;;;;22.85;9.65;;;7.60;89.40;;;;;;5030817;28;20049;-46
2020/12/16 00:20:36;;;;;;;19.60;9.55;;;7.60;89.30;;;;;;5031696;28;20059;-46
2020/12/16 00:23:02;;;;;;;23.52;11.07;;;7.70;89.20;;;;;;5037649;28;20072;-47
2020/12/16 00:25:28;;;;;;;19.52;9.52;;;7.70;89.10;;;;;;5051734;28;20063;-44
2020/12/16 00:27:54;;;;;;;20.85;10.23;;;7.70;89.10;;;;;;5051952;28;20515;-45
2020/12/16 00:30:20;;;;;;;23.58;10.52;;;7.70;89.20;;;;;;5051982;28;20393;-44
2020/12/16 00:32:46;;;;;;;20.90;9.75;;;7.70;89.00;;;;;;5044045;28;20033;-44
2020/12/16 00:35:12;;;;;;;22.73;10.82;;;7.70;89.00;;;;;;5051918;28;20033;-46
2020/12/16 00:37:39;;;;;;;24.55;11.95;;;7.70;89.00;;;;;;5050637;28;20028;-44
2020/12/16 00:40:08;;;;;;;23.90;11.52;;;7.70;89.00;;;;;;5054786;28;20116;-43
2020/12/16 00:42:34;;;;;;;25.10;11.73;;;7.70;89.00;;;;;;5055604;28;20492;-45
2020/12/16 00:45:00;;;;;;;25.90;10.45;;;7.80;88.80;;;;;;5054201;28;20080;-46
2020/12/16 00:47:26;;;;;;;21.80;10.02;;;7.80;88.80;;;;;;5055375;28;20496;-46
2020/12/16 00:49:52;;;;;;;24.63;10.32;;;7.80;88.80;;;;;;5041583;28;20033;-45
2020/12/16 00:52:17;;;;;;;24.02;10.68;;;7.80;88.80;;;;;;5035738;28;20493;-44
2020/12/16 00:54:44;;;;;;;25.90;10.93;;;7.70;88.70;;;;;;5049895;28;20044;-46
2020/12/16 00:57:10;;;;;;;21.60;11.07;;;7.70;88.80;;;;;;5055325;28;20040;-44
2020/12/16 00:59:36;;;;;;;22.88;11.43;;;7.70;88.70;;;;;;5055170;28;20481;-45
2020/12/16 01:02:05;;;;;;;22.42;10.05;;;7.70;89.00;;;;;;5055215;28;20029;-47
2020/12/16 01:04:30;;;;;;;24.83;10.77;;;7.60;89.10;;;;;;5054072;28;20144;-47
2020/12/16 01:06:56;;;;;;;21.92;11.00;;;7.60;89.10;;;;;;5040448;28;20544;-43
2020/12/16 01:09:22;;;;;;;24.83;11.38;;;7.60;89.40;;;;;;5035246;28;20037;-46
2020/12/16 01:11:48;;;;;;;20.70;10.38;;;7.60;89.60;;;;;;5034893;28;20116;-48
2020/12/16 01:14:14;;;;;;;23.88;10.88;;;7.60;89.50;;;;;;5035528;28;20080;-45
2020/12/16 01:16:39;;;;;;;21.35;10.90;;;7.70;89.50;;;;;;5034876;28;20054;-47
2020/12/16 01:19:06;;;;;;;23.20;10.63;;;7.60;89.40;;;;;;5033927;28;20029;-46
2020/12/16 01:21:34;;;;;;;21.90;10.30;;;7.70;89.40;;;;;;5035049;28;20049;-46
2020/12/16 01:24:01;;;;;;;20.02;10.18;;;7.70;89.50;;;;;;5049878;28;20025;-44
2020/12/16 01:26:27;;;;;;;22.02;11.18;;;7.80;89.40;;;;;;5054567;28;20040;-44
2020/12/16 01:28:53;;;;;;;20.50;10.15;;;7.80;89.30;;;;;;5054664;28;20374;-44
2020/12/16 01:31:19;;;;;;;21.95;10.23;;;7.90;89.10;;;;;;5053402;28;20037;-45
2020/12/16 01:33:44;;;;;;;21.92;10.68;;;7.80;88.90;;;;;;5054242;28;20033;-44
2020/12/16 01:36:11;;;;;;;20.25;9.93;;;7.80;89.00;;;;;;5053603;28;20067;-44
2020/12/16 01:38:36;;;;;;;26.52;10.75;;;7.80;89.10;;;;;;5054538;28;20040;-44
2020/12/16 01:41:04;;;;;;;21.25;10.23;;;7.80;89.20;;;;;;5054113;28;20041;-44
2020/12/16 01:43:37;;;;;;;23.55;10.15;;;7.90;89.10;;;;;;5054217;28;20162;-43
2020/12/16 01:46:05;;;;;;;21.88;10.10;;;7.90;88.90;;;;;;5054099;28;20040;-45
2020/12/16 01:48:30;;;;;;;21.95;10.48;;;7.80;88.80;;;;;;5054255;28;20028;-45
2020/12/16 01:50:56;;;;;;;22.02;10.43;;;7.90;88.80;;;;;;5053725;28;20037;-43
2020/12/16 01:53:24;;;;;;;20.13;9.90;;;7.80;88.70;;;;;;5049762;28;20037;-44
2020/12/16 01:55:50;;;;;;;25.45;11.60;;;7.70;89.20;;;;;;5034068;28;20037;-43
2020/12/16 01:58:21;;;;;;;23.80;11.88;;;7.70;89.60;;;;;;5034938;28;20033;-42
2020/12/16 02:00:48;;;;;;;25.45;11.65;;;7.60;90.00;;;;;;5034085;28;20091;-43
2020/12/16 02:03:18;;;;;;;22.60;10.90;;;7.70;90.10;;;;;;5034464;28;20061;-45
2020/12/16 02:05:47;;;;;;;23.25;12.00;;;7.70;90.20;;;;;;5038131;28;20041;-44
2020/12/16 02:08:18;;;;;;;23.90;12.05;;;7.80;90.20;;;;;;5053999;28;20021;-45
2020/12/16 02:10:45;;;;;;;25.98;11.85;;;7.80;90.10;;;;;;5053721;28;20397;-44
2020/12/16 02:13:11;;;;;;;26.20;11.48;;;7.90;90.00;;;;;;5053393;28;20059;-44
2020/12/16 02:15:36;;;;;;;23.48;11.32;;;8.00;89.90;;;;;;5034268;28;20038;-44
2020/12/16 02:18:02;;;;;;;23.30;11.32;;;8.00;89.90;;;;;;5032399;28;20057;-44
2020/12/16 02:20:28;;;;;;;25.17;11.73;;;8.00;89.70;;;;;;5033847;28;20500;-44
2020/12/16 02:22:56;;;;;;;23.08;11.90;;;8.00;89.80;;;;;;5046328;28;20033;-44
2020/12/16 02:25:22;;;;;;;22.33;11.52;;;8.10;89.70;;;;;;5053811;28;20056;-43
2020/12/16 02:27:47;;;;;;;23.55;11.38;;;8.10;89.70;;;;;;5053436;28;20481;-47
2020/12/16 02:30:13;;;;;;;22.63;10.65;;;8.10;89.60;;;;;;5053430;28;20033;-44
2020/12/16 02:32:39;;;;;;;23.20;11.43;;;8.20;89.60;;;;;;5036923;28;20054;-44
2020/12/16 02:35:06;;;;;;;25.70;12.15;;;8.20;89.60;;;;;;5052402;28;20023;-45
2020/12/16 02:37:32;;;;;;;23.38;10.90;;;8.20;89.60;;;;;;5053351;28;20063;-45
2020/12/16 02:39:58;;;;;;;26.08;11.18;;;8.20;89.60;;;;;;5053418;28;20111;-45
2020/12/16 02:42:26;;;;;;;23.42;11.77;;;8.20;89.60;;;;;;5053317;28;20051;-43
2020/12/16 02:44:53;;;;;;;21.63;10.05;;;8.20;89.60;;;;;;5051913;28;20037;-44
2020/12/16 02:47:20;;;;;;;22.27;10.88;;;8.20;89.40;;;;;;5052625;28;20037;-45
2020/12/16 02:49:46;;;;;;;22.52;11.18;;;8.20;89.40;;;;;;5051956;28;20038;-44
2020/12/16 02:52:12;;;;;;;20.35;10.10;;;8.10;89.30;;;;;;5053286;28;20043;-46
2020/12/16 02:54:38;;;;;;;24.10;11.45;;;8.10;89.50;;;;;;5038967;28;20029;-44
2020/12/16 02:57:04;;;;;;;22.60;11.07;;;8.10;89.60;;;;;;5033101;28;20114;-45
2020/12/16 02:59:30;;;;;;;21.48;10.90;;;8.00;89.90;;;;;;5033212;28;20053;-45
2020/12/16 03:01:57;;;;;;;24.52;10.40;;;8.10;89.90;;;;;;5031700;28;20409;-46
2020/12/16 03:04:24;;;;;;;22.05;10.05;;;8.10;89.90;;;;;;5033625;28;20052;-45
2020/12/16 03:06:55;;;;;;;21.75;10.52;;;8.10;89.70;;;;;;5046093;28;20056;-45
2020/12/16 03:09:25;;;;;;;24.50;11.85;;;8.10;89.60;;;;;;5053129;28;20032;-43
2020/12/16 03:11:53;;;;;;;26.77;11.25;;;8.10;89.70;;;;;;5052581;28;20535;-46
2020/12/16 03:14:20;;;;;;;21.27;10.95;;;8.00;89.90;;;;;;5052935;28;20025;-45
2020/12/16 03:16:45;;;;;;;22.83;11.13;;;7.90;90.00;;;;;;5034845;28;20110;-43
2020/12/16 03:19:11;;;;;;;23.67;10.57;;;7.80;90.40;;;;;;5053021;28;20033;-44
2020/12/16 03:21:38;;;;;;;22.10;10.02;;;7.90;90.50;;;;;;5048776;28;20108;-46
2020/12/16 03:24:03;;;;;;;23.77;10.90;;;7.90;90.50;;;;;;5032794;28;20432;-43
2020/12/16 03:26:29;;;;;;;24.10;10.50;;;7.90;90.50;;;;;;5033637;28;20087;-44
2020/12/16 03:28:55;;;;;;;22.35;9.48;;;8.00;90.60;;;;;;5052369;28;20041;-44
2020/12/16 03:31:21;;;;;;;20.85;10.80;;;8.00;90.40;;;;;;5052634;28;20138;-43
2020/12/16 03:33:47;;;;;;;23.50;10.52;;;8.10;90.40;;;;;;5052143;28;20036;-43
2020/12/16 03:36:15;;;;;;;22.23;11.32;;;8.10;90.20;;;;;;5052660;28;20037;-44
2020/12/16 03:38:42;;;;;;;22.35;10.90;;;8.20;90.00;;;;;;5051436;28;20029;-46
2020/12/16 03:41:08;;;;;;;22.17;10.55;;;8.10;90.10;;;;;;5034745;28;20033;-44
2020/12/16 03:43:34;;;;;;;26.33;13.27;;;8.10;90.10;;;;;;5052347;28;20048;-48
2020/12/16 03:46:00;;;;;;;23.83;11.57;;;8.10;90.10;;;;;;5051993;28;20041;-44
2020/12/16 03:48:25;;;;;;;21.92;10.77;;;8.20;89.90;;;;;;5051121;28;20036;-44
2020/12/16 03:50:51;;;;;;;26.60;11.88;;;8.20;89.90;;;;;;5052271;28;20032;-43
2020/12/16 03:53:17;;;;;;;28.58;11.32;;;8.20;89.90;;;;;;5048467;28;20040;-46
2020/12/16 03:55:43;;;;;;;23.25;11.98;;;8.20;89.80;;;;;;5034815;28;20116;-45
2020/12/16 03:58:09;;;;;;;25.10;11.65;;;8.20;89.70;;;;;;5052246;28;20029;-44
2020/12/16 04:00:34;;;;;;;24.27;11.05;;;8.20;89.70;;;;;;5052076;28;20044;-46
2020/12/16 04:03:00;;;;;;;21.15;10.40;;;8.20;89.40;;;;;;5052133;28;20059;-45
2020/12/16 04:05:26;;;;;;;22.83;10.60;;;8.20;89.40;;;;;;5050873;28;20064;-46
2020/12/16 04:07:52;;;;;;;20.27;9.05;;;8.20;89.20;;;;;;5050733;28;20045;-43
2020/12/16 04:10:18;;;;;;;20.50;9.35;;;8.20;89.10;;;;;;5052044;28;20039;-47
2020/12/16 04:12:43;;;;;;;23.80;10.70;;;8.20;89.20;;;;;;5047400;28;20030;-49
2020/12/16 04:15:09;;;;;;;25.27;11.75;;;8.20;89.20;;;;;;5035076;28;20034;-47
2020/12/16 04:17:36;;;;;;;24.38;11.80;;;8.10;89.40;;;;;;5036520;28;20049;-46
2020/12/16 04:20:04;;;;;;;26.80;12.00;;;8.10;89.70;;;;;;5036239;28;20030;-44
2020/12/16 04:22:30;;;;;;;25.85;11.48;;;8.00;90.00;;;;;;5035643;28;20042;-44
2020/12/16 04:24:56;;;;;;;22.73;11.75;;;8.10;90.10;;;;;;5035863;28;20029;-48
2020/12/16 04:27:22;;;;;;;23.38;11.80;;;8.10;90.10;;;;;;5036312;28;20128;-48
2020/12/16 04:29:48;;;;;;;27.45;11.95;;;8.20;89.90;;;;;;5040575;28;20163;-47
2020/12/16 04:32:14;;;;;;;24.85;12.38;;;8.20;89.80;;;;;;5056124;28;20086;-45
2020/12/16 04:34:41;;;;;;;26.40;11.82;;;8.20;89.80;;;;;;5055611;28;20536;-44
2020/12/16 04:37:06;;;;;;;24.65;10.73;;;8.20;89.80;;;;;;5055937;28;20032;-47
2020/12/16 04:39:32;;;;;;;24.33;11.77;;;8.20;89.80;;;;;;5055642;28;20115;-48
2020/12/16 04:41:58;;;;;;;19.77;11.07;;;8.20;89.80;;;;;;5055702;28;20029;-44
2020/12/16 04:44:24;;;;;;;24.95;11.27;;;8.20;89.70;;;;;;5054183;28;20540;-46
2020/12/16 04:46:50;;;;;;;26.67;10.80;;;8.30;89.60;;;;;;5053248;28;20044;-46
2020/12/16 04:49:16;;;;;;;25.05;12.02;;;8.20;89.50;;;;;;5055672;28;20028;-44
2020/12/16 04:51:43;;;;;;;23.20;11.23;;;8.30;89.40;;;;;;5055358;28;20546;-44
2020/12/16 04:54:10;;;;;;;22.75;10.98;;;8.20;89.40;;;;;;5045433;28;20073;-47
2020/12/16 04:56:37;;;;;;;27.38;12.43;;;8.30;89.40;;;;;;5050742;28;20033;-48
2020/12/16 04:59:06;;;;;;;27.92;12.32;;;8.30;89.40;;;;;;5055492;28;20127;-48
2020/12/16 05:01:38;;;;;;;26.92;11.80;;;8.30;89.20;;;;;;5055726;28;20124;-46
2020/12/16 05:04:04;;;;;;;26.48;11.85;;;8.20;89.10;;;;;;5044521;28;20029;-47
2020/12/16 05:06:41;;;;;;;24.92;12.40;;;8.20;89.20;;;;;;5035235;28;20099;-45
2020/12/16 05:09:12;;;;;;;24.40;11.93;;;8.20;89.60;;;;;;5035400;28;20112;-45
2020/12/16 05:11:49;;;;;;;25.77;11.45;;;8.20;89.70;;;;;;5034216;28;20059;-46
2020/12/16 05:14:16;;;;;;;26.73;11.65;;;8.20;89.70;;;;;;5035541;28;20033;-47
2020/12/16 05:17:00;;;;;;;27.10;12.48;;;8.20;89.60;;;;;;5034795;28;20417;-44
2020/12/16 05:19:39;;;;;;;26.52;11.95;;;8.30;89.40;;;;;;5034956;28;20033;-44
2020/12/16 05:22:17;;;;;;;28.63;12.40;;;8.30;89.50;;;;;;5034339;28;20025;-44
2020/12/16 05:24:52;;;;;;;28.65;12.30;;;8.30;89.30;;;;;;5034302;28;20036;-44
2020/12/16 05:27:29;;;;;;;28.25;13.32;;;8.30;89.20;;;;;;5035062;28;20490;-43
2020/12/16 05:29:57;;;;;;;27.23;11.82;;;8.20;89.20;;;;;;5033398;28;20079;-43
2020/12/16 05:32:25;;;;;;;26.58;12.00;;;8.20;89.40;;;;;;5035076;28;20040;-46
2020/12/16 05:34:52;;;;;;;58.42;26.52;;;8.10;89.70;;;;;;5034773;28;20124;-45
2020/12/16 05:37:28;;;;;;;46.55;21.55;;;8.10;89.60;;;;;;5035421;28;20037;-45
2020/12/16 05:40:13;;;;;;;;;;;8.10;89.50;;;;;;5035090;28;20034;-45
2020/12/16 05:42:41;;;;;;;28.88;11.50;;;8.10;89.40;;;;;;5033044;28;19915;-45
2020/12/16 05:45:08;;;;;;;27.85;13.27;;;7.90;89.40;;;;;;5028617;28;20091;-45
2020/12/16 05:47:34;;;;;;;26.90;10.55;;;7.90;89.50;;;;;;5033334;28;20463;-45
2020/12/16 05:50:00;;;;;;;24.70;10.20;;;7.80;89.80;;;;;;5033386;28;20060;-43
2020/12/16 05:52:26;;;;;;;27.33;10.90;;;7.70;89.80;;;;;;5034406;28;20065;-46
2020/12/16 05:54:52;;;;;;;23.83;9.70;;;7.80;89.80;;;;;;5039202;28;20401;-44
2020/12/16 05:57:29;;;;;;;22.85;9.45;;;7.90;89.60;;;;;;5054131;28;20039;-49
2020/12/16 06:00:09;;;;;;;25.42;10.23;;;8.00;89.30;;;;;;5054058;28;20412;-47
2020/12/16 06:02:40;;;;;;;25.52;10.48;;;8.00;89.30;;;;;;5054188;28;20421;-45
2020/12/16 06:05:13;;;;;;;25.85;10.82;;;8.10;89.40;;;;;;5053895;28;20103;-47
2020/12/16 06:07:42;;;;;;;20.60;8.73;;;8.10;89.10;;;;;;5053827;28;20439;-46
2020/12/16 06:10:08;;;;;;;28.67;9.75;;;8.20;89.10;;;;;;5053954;28;20036;-44
2020/12/16 06:12:39;;;;;;;27.33;9.40;;;8.20;89.00;;;;;;5053040;28;20025;-48
2020/12/16 06:15:13;;;;;;;28.63;10.57;;;8.20;89.00;;;;;;5053521;28;20398;-46
2020/12/16 06:17:44;;;;;;;27.20;10.90;;;8.20;89.10;;;;;;5052201;28;20520;-47
2020/12/16 06:20:15;;;;;;;25.50;10.02;;;8.20;89.00;;;;;;5053931;28;20051;-45
2020/12/16 06:22:46;;;;;;;34.20;13.15;;;8.20;89.10;;;;;;5054074;28;20068;-44
2020/12/16 06:25:17;;;;;;;28.00;11.18;;;8.20;88.90;;;;;;5047769;28;20025;-47
2020/12/16 06:27:46;;;;;;;24.88;9.43;;;8.10;89.00;;;;;;5045093;28;20064;-45
2020/12/16 06:30:19;;;;;;;25.85;9.95;;;8.20;89.00;;;;;;5051930;28;20032;-45
2020/12/16 06:32:52;;;;;;;23.60;9.75;;;8.10;88.30;;;;;;5053287;28;20044;-47
2020/12/16 06:35:19;;;;;;;21.88;9.18;;;8.00;88.40;;;;;;5053739;28;20051;-44
2020/12/16 06:37:46;;;;;;;21.63;10.30;;;8.10;88.00;;;;;;5051278;28;20032;-45
2020/12/16 06:40:32;;;;;;;21.92;9.77;;;8.00;87.70;;;;;;5053611;28;20043;-46
2020/12/16 06:42:58;;;;;;;23.40;9.93;;;8.00;87.60;;;;;;5052991;28;20116;-43
2020/12/16 06:45:32;;;;;;;22.42;9.90;;;8.00;87.30;;;;;;5050846;28;20136;-44
2020/12/16 06:47:58;;;;;;;23.70;11.55;;;7.90;87.20;;;;;;5033075;28;20036;-45
2020/12/16 06:50:23;;;;;;;22.10;11.23;;;8.00;87.20;;;;;;5032187;28;20030;-44
2020/12/16 06:52:49;;;;;;;23.27;10.88;;;8.00;86.70;;;;;;5033151;28;20034;-46
2020/12/16 06:55:15;;;;;;;23.55;11.23;;;8.00;86.40;;;;;;5035520;28;20443;-46
2020/12/16 06:57:47;;;;;;;22.08;10.90;;;8.00;86.60;;;;;;5052975;28;20481;-44
2020/12/16 07:00:23;;;;;;;21.63;10.43;;;8.00;86.10;;;;;;5053235;28;20492;-45
2020/12/16 07:02:51;;;;;;;;;;;8.10;86.20;;;;;;5051245;28;20485;-44
2020/12/16 07:05:41;;;;;;;23.38;10.20;;;8.00;85.60;;;;;;5053079;28;20442;-47
2020/12/16 07:08:07;;;;;;;22.50;11.63;;;8.00;85.50;;;;;;5052743;28;20032;-46
2020/12/16 07:10:33;;;;;;;21.02;10.52;;;7.90;85.60;;;;;;5053101;28;20033;-46
2020/12/16 07:13:11;;;;;;;21.98;11.15;;;7.90;85.80;;;;;;5051520;28;20385;-44
2020/12/16 07:16:00;;;;;;;23.52;11.40;;;7.90;85.60;;;;;;5052921;28;20417;-46
2020/12/16 07:18:29;;;;;;;21.25;10.10;;;7.90;85.90;;;;;;5052730;28;20048;-47
2020/12/16 07:20:59;;;;;;;22.42;10.45;;;7.80;85.60;;;;;;5051833;28;20118;-45
2020/12/16 07:23:42;;;;;;;22.23;10.63;;;7.90;85.60;;;;;;5052528;28;20029;-46
2020/12/16 07:26:10;;;;;;;22.02;11.60;;;7.90;85.30;;;;;;5038689;28;20045;-44
2020/12/16 07:28:38;;;;;;;19.42;9.60;;;7.90;85.20;;;;;;5032856;28;20136;-45
2020/12/16 07:31:07;;;;;;;23.45;11.95;;;7.90;85.30;;;;;;5048605;28;20439;-47
2020/12/16 07:33:34;;;;;;;23.92;11.38;;;7.90;85.50;;;;;;5052512;28;20029;-45
2020/12/16 07:36:00;;;;;;;22.83;10.88;;;7.90;85.80;;;;;;5052471;28;20033;-45
2020/12/16 07:38:27;;;;;;;23.33;11.80;;;7.90;85.80;;;;;;5033637;28;20068;-47
2020/12/16 07:40:54;;;;;;;21.95;11.98;;;7.80;85.90;;;;;;5032099;28;20029;-46
2020/12/16 07:43:21;;;;;;;24.08;12.95;;;7.80;85.90;;;;;;5032892;28;20397;-45
2020/12/16 07:46:07;;;;;;;22.73;11.73;;;7.90;86.20;;;;;;5032015;28;20025;-46
2020/12/16 07:48:35;;;;;;;23.70;11.65;;;8.00;86.20;;;;;;5032287;28;20029;-46
2020/12/16 07:51:03;;;;;;;24.20;11.63;;;8.10;86.00;;;;;;5032292;28;20030;-45
2020/12/16 07:53:31;;;;;;;22.88;11.02;;;8.20;86.00;;;;;;5033065;28;20167;-44
2020/12/16 07:56:03;;;;;;;23.77;11.23;;;8.30;86.00;;;;;;5041428;28;20051;-45
2020/12/16 07:58:30;;;;;;;23.40;11.40;;;8.30;85.90;;;;;;5052237;28;20040;-50
2020/12/16 08:01:11;;;;;;;22.20;11.38;;;8.30;85.80;;;;;;5050791;28;20040;-48
2020/12/16 08:03:37;;;;;;;23.98;11.38;;;8.30;85.50;;;;;;5052201;28;20044;-49
2020/12/16 08:06:04;;;;;;;21.75;10.02;;;8.30;85.80;;;;;;5051760;28;20404;-49
2020/12/16 08:08:31;;;;;;;23.77;10.93;;;8.10;86.30;;;;;;5052015;28;20035;-48
2020/12/16 08:10:57;;;;;;;25.02;10.60;;;8.20;85.90;;;;;;5049547;28;20075;-47
2020/12/16 08:13:26;;;;;;;21.40;10.05;;;8.10;85.60;;;;;;5052223;28;20064;-45
2020/12/16 08:15:52;;;;;;;21.02;10.40;;;8.20;85.70;;;;;;5051989;28;20094;-45
2020/12/16 08:18:19;;;;;;;22.40;9.95;;;8.20;85.60;;;;;;5052512;28;20385;-50
2020/12/16 08:20:46;;;;;;;22.95;10.85;;;8.20;85.80;;;;;;5051036;28;20123;-48
2020/12/16 08:23:14;;;;;;;22.90;10.88;;;8.30;86.00;;;;;;5051915;28;20335;-46
2020/12/16 08:25:41;;;;;;;21.98;10.48;;;8.40;86.10;;;;;;5051783;28;20195;-44
2020/12/16 08:28:07;;;;;;;21.13;9.75;;;8.50;86.00;;;;;;5051251;28;20032;-45
2020/12/16 08:30:34;;;;;;;25.38;10.55;;;8.50;85.60;;;;;;5038522;28;20029;-46
2020/12/16 08:33:02;;;;;;;23.00;10.75;;;8.70;85.30;;;;;;5031844;28;20026;-45
2020/12/16 08:35:39;;;;;;;21.27;9.60;;;8.70;85.30;;;;;;5031841;28;20029;-47
2020/12/16 08:38:07;;;;;;;22.88;10.40;;;8.80;85.30;;;;;;5031733;28;20033;-46
2020/12/16 08:40:44;;;;;;;20.67;11.07;;;8.90;85.20;;;;;;5032045;28;20030;-46
2020/12/16 08:43:18;;;;;;;23.15;11.45;;;8.90;84.70;;;;;;5032180;28;20026;-45
2020/12/16 08:45:44;;;;;;;22.70;9.93;;;9.10;84.60;;;;;;5031970;28;20501;-47
2020/12/16 08:48:10;;;;;;;24.48;11.38;;;9.10;84.50;;;;;;5031512;28;20102;-46
2020/12/16 08:50:36;;;;;;;22.65;10.70;;;9.20;84.40;;;;;;5031601;28;20072;-45
2020/12/16 08:53:02;;;;;;;22.60;11.40;;;9.20;84.10;;;;;;5030370;28;20033;-43
2020/12/16 08:55:34;;;;;;;21.23;11.18;;;9.30;83.70;;;;;;5050867;28;20041;-46
2020/12/16 08:58:01;;;;;;;22.30;10.77;;;9.40;83.40;;;;;;5051501;28;20021;-44
2020/12/16 09:00:34;;;;;;;22.20;10.95;;;9.40;83.10;;;;;;5053175;28;20056;-45
2020/12/16 09:03:12;;;;;;;21.23;10.10;;;9.30;83.30;;;;;;5053065;28;20037;-45
2020/12/16 09:05:40;;;;;;;20.88;9.98;;;9.30;83.20;;;;;;5055197;28;20043;-46
2020/12/16 09:08:15;;;;;;;22.67;11.05;;;9.30;83.70;;;;;;5055026;28;20037;-47
2020/12/16 09:10:43;;;;;;;24.05;11.20;;;9.30;83.90;;;;;;5055404;28;20064;-45
2020/12/16 09:13:11;;;;;;;22.35;11.05;;;9.30;83.80;;;;;;5054682;28;20041;-45
2020/12/16 09:15:37;;;;;;;32.00;10.70;;;9.30;83.60;;;;;;5054910;28;20044;-47
2020/12/16 09:18:04;;;;;;;22.20;11.23;;;9.40;83.40;;;;;;5054870;28;20485;-48
2020/12/16 09:20:33;;;;;;;24.42;11.25;;;9.40;83.40;;;;;;5053040;28;20111;-46
2020/12/16 09:23:00;;;;;;;23.38;10.07;;;9.50;83.50;;;;;;5054583;28;20045;-43
2020/12/16 09:25:26;;;;;;;28.83;10.98;;;9.40;83.60;;;;;;5054842;28;20032;-45
2020/12/16 09:27:53;;;;;;;23.70;9.63;;;9.50;83.30;;;;;;5054548;28;20041;-43
2020/12/16 09:30:33;;;;;;;23.33;11.05;;;9.60;83.10;;;;;;5053281;28;20408;-47
2020/12/16 09:33:13;;;;;;;22.27;10.23;;;9.50;83.30;;;;;;5054662;28;20033;-46
2020/12/16 09:35:40;;;;;;;25.83;11.10;;;9.50;83.30;;;;;;5050553;28;20030;-49
2020/12/16 09:38:32;;;;;;;22.38;10.52;;;9.60;83.20;;;;;;5034698;28;20037;-47
2020/12/16 09:41:00;;;;;;;24.83;11.23;;;9.60;83.50;;;;;;5034427;28;20038;-46
2020/12/16 09:43:41;;;;;;;29.77;10.23;;;9.60;83.50;;;;;;5034554;28;20052;-45
2020/12/16 09:46:14;;;;;;;24.52;11.00;;;9.60;83.50;;;;;;5034076;28;20429;-46
2020/12/16 09:48:40;;;;;;;24.80;11.02;;;9.70;83.30;;;;;;5034148;28;20489;-45
2020/12/16 09:51:13;;;;;;;25.65;11.07;;;9.70;83.10;;;;;;5038895;28;20063;-45
2020/12/16 09:53:43;;;;;;;25.83;11.88;;;9.70;82.60;;;;;;5048498;28;20489;-46
2020/12/16 09:56:20;;;;;;;24.40;12.63;;;9.90;82.50;;;;;;5054192;28;20029;-43
2020/12/16 09:58:46;;;;;;;20.00;9.35;;;9.90;82.70;;;;;;5054678;28;20370;-45
2020/12/16 10:01:12;;;;;;;25.63;9.82;;;9.90;82.20;;;;;;5053969;28;20029;-45
2020/12/16 10:03:37;;;;;;;23.67;8.95;;;9.90;82.00;;;;;;5054074;28;20068;-46
2020/12/16 10:06:05;;;;;;;22.70;9.00;;;10.00;82.00;;;;;;5053716;28;20102;-45
2020/12/16 10:08:31;;;;;;;22.15;9.10;;;9.90;81.60;;;;;;5050397;28;20485;-43
2020/12/16 10:10:57;;;;;;;17.70;8.25;;;10.00;81.70;;;;;;5043177;28;20035;-44
2020/12/16 10:13:24;;;;;;;23.00;10.02;;;10.00;81.80;;;;;;5033476;28;20037;-47
2020/12/16 10:15:50;;;;;;;23.15;9.55;;;10.00;82.00;;;;;;5033518;28;20453;-49
2020/12/16 10:18:16;;;;;;;21.35;9.55;;;10.00;82.20;;;;;;5033773;28;20045;-46
2020/12/16 10:20:42;;;;;;;24.23;9.18;;;10.10;82.20;;;;;;5033894;28;20044;-44
2020/12/16 10:23:08;;;;;;;21.20;7.78;;;10.10;81.70;;;;;;5033519;28;20444;-45
2020/12/16 10:25:33;;;;;;;18.75;8.15;;;10.10;81.60;;;;;;5033647;28;20091;-45
2020/12/16 10:28:00;;;;;;;19.63;7.82;;;10.10;81.30;;;;;;5033917;28;20116;-44
2020/12/16 10:30:26;;;;;;;18.40;7.35;;;10.10;81.20;;;;;;5045906;28;20028;-46
2020/12/16 10:32:57;;;;;;;17.10;7.03;;;10.10;80.90;;;;;;5035465;28;20037;-46
2020/12/16 10:35:24;;;;;;;18.55;7.85;;;10.10;80.90;;;;;;5053491;28;20037;-46
2020/12/16 10:37:50;;;;;;;19.15;7.85;;;10.10;80.90;;;;;;5053373;28;20487;-44
2020/12/16 10:40:16;;;;;;;21.10;8.50;;;10.10;80.80;;;;;;5053287;28;20029;-45
2020/12/16 10:42:42;;;;;;;19.83;7.55;;;10.20;80.50;;;;;;5053303;28;20370;-46
2020/12/16 10:45:07;;;;;;;21.08;8.73;;;10.20;80.90;;;;;;5035372;28;20042;-44
2020/12/16 10:47:33;;;;;;;19.65;8.27;;;10.20;80.90;;;;;;5033151;28;20098;-49
2020/12/16 10:49:59;;;;;;;22.25;9.43;;;10.20;81.00;;;;;;5033052;28;20040;-48
2020/12/16 10:52:25;;;;;;;25.05;10.57;;;10.30;81.10;;;;;;5033650;28;20033;-46
2020/12/16 10:54:51;;;;;;;22.15;9.70;;;10.40;81.00;;;;;;5033784;28;20076;-46
2020/12/16 10:57:19;;;;;;;23.58;9.98;;;10.30;81.10;;;;;;5047667;28;20025;-46
2020/12/16 10:59:47;;;;;;;23.52;8.77;;;10.30;81.00;;;;;;5033156;28;20029;-45
2020/12/16 11:02:13;;;;;;;22.00;9.45;;;10.30;81.20;;;;;;5034321;28;20392;-50
2020/12/16 11:04:39;;;;;;;23.45;9.88;;;10.30;81.10;;;;;;5033836;28;20040;-46
2020/12/16 11:07:05;;;;;;;20.42;9.10;;;10.30;81.10;;;;;;5032486;28;20102;-47
2020/12/16 11:09:30;;;;;;;25.27;11.23;;;10.30;81.30;;;;;;5031540;28;20306;-44
2020/12/16 11:11:56;;;;;;;24.08;11.05;;;10.30;81.60;;;;;;5032417;28;20033;-47
2020/12/16 11:14:22;;;;;;;22.80;10.27;;;10.30;81.50;;;;;;5032659;28;20148;-47
2020/12/16 11:16:48;;;;;;;23.80;9.65;;;10.20;81.50;;;;;;5032432;28;20493;-43
2020/12/16 11:19:17;;;;;;;22.45;10.55;;;10.20;81.60;;;;;;5049133;28;20033;-47
2020/12/16 11:21:45;;;;;;;28.33;10.63;;;10.10;81.70;;;;;;5050511;28;20511;-48
2020/12/16 11:24:12;;;;;;;26.15;9.95;;;10.10;82.00;;;;;;5040878;28;20047;-49
2020/12/16 11:26:40;;;;;;;25.05;10.40;;;10.00;82.30;;;;;;5051401;28;20055;-50
2020/12/16 11:29:07;;;;;;;25.20;10.02;;;10.00;82.20;;;;;;5037594;28;20041;-44
2020/12/16 11:31:41;;;;;;;24.80;10.75;;;10.00;82.30;;;;;;5051003;28;20401;-46
2020/12/16 11:34:08;;;;;;;25.55;10.88;;;10.00;82.30;;;;;;5051863;28;20051;-45
2020/12/16 11:36:42;;;;;;;24.73;9.50;;;10.10;82.30;;;;;;5052654;28;20485;-48
2020/12/16 11:39:08;;;;;;;26.70;10.82;;;10.10;82.30;;;;;;5052104;28;20024;-45
2020/12/16 11:41:36;;;;;;;26.55;10.45;;;10.20;81.60;;;;;;5034059;28;20036;-48
2020/12/16 11:44:02;;;;;;;22.52;9.30;;;10.20;81.10;;;;;;5030555;28;20124;-50
2020/12/16 11:46:30;;;;;;;23.05;9.63;;;10.10;80.40;;;;;;5032188;28;20041;-46
2020/12/16 11:48:59;;;;;;;23.73;10.40;;;10.10;81.00;;;;;;5032259;28;20033;-46
2020/12/16 11:51:25;;;;;;;21.73;9.45;;;10.20;81.20;;;;;;5033932;28;20389;-45
2020/12/16 11:53:51;;;;;;;20.80;8.90;;;10.30;80.80;;;;;;5052307;28;20029;-49
2020/12/16 11:56:17;;;;;;;20.13;8.95;;;10.30;80.50;;;;;;5051817;28;20115;-45
2020/12/16 11:58:43;;;;;;;22.70;8.88;;;10.30;80.30;;;;;;5052080;28;20029;-49
2020/12/16 12:01:16;;;;;;;20.55;8.85;;;10.40;79.60;;;;;;5052222;28;20552;-44
2020/12/16 12:03:46;;;;;;;20.75;9.27;;;10.40;79.80;;;;;;5052319;28;20044;-49
2020/12/16 12:06:13;;;;;;;19.95;9.18;;;10.40;79.50;;;;;;5051952;28;20076;-44
2020/12/16 12:08:40;;;;;;;23.70;9.48;;;10.50;79.30;;;;;;5051297;28;20496;-43
2020/12/16 12:11:12;;;;;;;22.60;9.70;;;10.50;79.40;;;;;;5051876;28;20044;-47
2020/12/16 12:13:39;;;;;;;17.90;9.23;;;10.50;79.30;;;;;;5051907;28;20029;-47
2020/12/16 12:16:07;;;;;;;20.60;9.55;;;10.50;79.40;;;;;;5051990;28;20121;-46
2020/12/16 12:18:32;;;;;;;22.23;9.20;;;10.50;79.40;;;;;;5052116;28;20033;-45
2020/12/16 12:20:58;;;;;;;18.45;9.18;;;10.40;79.30;;;;;;5052206;28;20025;-46
2020/12/16 12:23:24;;;;;;;18.67;9.18;;;10.40;79.60;;;;;;5051988;28;20116;-45
2020/12/16 12:25:50;;;;;;;20.88;9.50;;;10.30;79.80;;;;;;5045771;28;20490;-45
2020/12/16 12:28:16;;;;;;;21.27;9.68;;;10.40;80.00;;;;;;5047594;28;20033;-46
2020/12/16 12:30:42;;;;;;;19.63;8.98;;;10.40;80.10;;;;;;5050752;28;20046;-49
2020/12/16 12:33:08;;;;;;;20.42;9.40;;;10.40;79.70;;;;;;5051824;28;20036;-45
2020/12/16 12:35:33;;;;;;;21.85;9.00;;;10.40;79.50;;;;;;5053995;28;20041;-47
2020/12/16 12:37:59;;;;;;;18.90;8.98;;;10.30;79.20;;;;;;5054646;28;20029;-47
2020/12/16 12:40:25;;;;;;;17.70;8.18;;;10.20;79.80;;;;;;5054108;28;20504;-46
2020/12/16 12:42:51;;;;;;;19.50;9.10;;;10.20;79.90;;;;;;5050003;28;20029;-44